Latest Coastal Weather Observations for Ulladulla

IDN60701

Issued at 1:41 am EST Thursday 25 May 2017 (issued every 10 minutes, with the page automatically refreshed every 10 minutes)

About coastal observations | Map of coastal stations | Coastal observations for NSW | Marine services | Other Formats
Station Details ID: 069138 Name: ULLADULLA AWS Lat: -35.36 Lon: 150.48 Height: 35.7 m
Data from the previous 72 hours. | See also: Recent months at Ulladulla
Date/Time
EST
Temp
°C
Wind Pressure Rain since
9am
mm
Weather Cloud Vis
km
Sea
Height
m
Swell
Dir  Spd
kts
Gust
kts
hPa Trend Height
m
Period
s
Dir
25/01:30am 12.7 W 5 7 1018.2 - 0.0 - - - - - - -
25/01:00am 12.8 W 4 6 1018.1 - 0.0 - - - - - - -
25/12:30am 13.4 WNW 4 8 1017.9 - 0.0 - - - - - - -
25/12:00am 13.5 W 5 8 1018.0 - 0.0 - - - - - - -
 
Date/Time
EST
Temp
°C
Wind Pressure Rain since
9am
mm
Weather Cloud Vis
km
Sea
Height
m
Swell
Dir  Spd
kts
Gust
kts
hPa Trend Height
m
Period
s
Dir
24/11:30pm 13.6 W 4 9 1018.0 - 0.0 - - - - - - -
24/11:00pm 13.9 WNW 5 9 1017.8 - 0.0 - - - - - - -
24/10:30pm 14.0 WNW 4 8 1017.6 - 0.0 - - - - - - -
24/10:00pm 14.0 WNW 4 6 1017.5 - 0.0 - - - - - - -
24/09:30pm 14.0 W 4 7 1017.6 - 0.0 - - - - - - -
24/09:00pm 14.3 W 4 7 1017.4 - 0.0 - - - - - - -
24/08:30pm 14.7 W 4 8 1017.1 - 0.0 - - - - - - -
24/08:00pm 14.9 W 6 11 1016.8 - 0.0 - - - - - - -
24/07:30pm 15.4 W 3 6 1016.6 - 0.0 - - - - - - -
24/07:00pm 15.7 WSW 4 7 1016.2 - 0.0 - - - - - - -
24/06:30pm 15.9 SW 4 7 1015.7 - 0.0 - - - - - - -
24/06:00pm 16.4 SW 5 10 1015.2 - 0.0 - - - - - - -
24/05:30pm 17.1 WNW 7 13 1014.3 - 0.0 - - - - - - -
24/05:00pm 17.6 WNW 6 12 1013.8 - 0.0 - - - - - - -
24/04:30pm 18.6 WNW 5 10 1013.3 - 0.0 - - - - - - -
24/04:00pm 19.7 WNW 5 11 1012.9 - 0.0 - - - - - - -
24/03:30pm 20.4 WNW 6 9 1012.3 - 0.0 - - - - - - -
24/03:00pm 20.7 WNW 6 10 1011.8 - 0.0 - - - - - - -
24/02:30pm 21.0 W 6 13 1011.6 - 0.0 - - - - - - -
24/02:00pm 21.3 WSW 7 13 1011.3 - 0.0 - - - - - - -
24/01:30pm 20.7 WSW 7 13 1011.1 - 0.0 - - - - - - -
24/01:00pm 21.1 W 5 11 1011.0 - 0.0 - - - - - - -
24/12:30pm 21.1 W 6 12 1011.3 - 0.0 - - - - - - -
24/12:00pm 20.5 WNW 9 17 1011.4 - 0.0 - - - - - - -
24/11:30am 20.3 NW 9 15 1011.9 - 0.0 - - - - - - -
24/11:00am 20.1 WNW 5 8 1012.7 - 0.0 - - - - - - -
24/10:30am 18.5 NW 5 9 1013.1 - 0.0 - - - - - - -
24/10:00am 19.4 WNW 6 11 1013.0 - 0.0 - - - - - - -
24/09:30am 18.8 WNW 4 9 1013.2 - 0.0 - - - - - - -
24/09:00am 17.9 NW 6 9 1013.2 - 3.2 - - - - - - -
24/08:30am 16.7 NW 4 9 1013.4 - 3.2 - - - - - - -
24/08:00am 15.1 WSW 3 5 1013.3 - 3.2 - - - - - - -
24/07:30am 14.8 NW 3 6 1012.9 - 3.2 - - - - - - -
24/07:00am 15.2 NW 5 7 1013.2 - 3.0 - - - - - - -
24/06:30am 15.0 WNW 6 10 1013.2 - 3.0 - - - - - - -
24/06:00am 14.5 WNW 4 9 1012.7 - 3.0 Rain - - - - - -
24/05:30am 15.3 NNW 8 13 1013.4 - 2.0 - - - - - - -
24/05:00am 16.0 N 5 8 1012.7 - 0.0 - - - - - - -
24/04:30am 15.4 NNE 3 4 1011.6 - 0.0 - - - - - - -
24/04:00am 15.8 N 3 4 1012.2 - 0.0 - - - - - - -
24/03:30am 15.7 NNE 3 5 1012.6 - 0.0 - - - - - - -
24/03:00am 15.5 N 3 4 1013.1 - 0.0 - - - - - - -
24/02:30am 15.8 N 3 5 1013.1 - 0.0 - - - - - - -
24/02:00am 15.7 N 3 4 1013.3 - 0.0 - - - - - - -
24/01:30am 15.8 NNW 3 4 1013.9 - 0.0 - - - - - - -
24/01:00am 16.3 NNW 3 5 1014.3 - 0.0 - - - - - - -
24/12:30am 16.6 WNW 3 4 1014.6 - 0.0 - - - - - - -
24/12:00am 16.6 NNE 2 4 1015.2 - 0.0 - - - - - - -
 
Date/Time
EST
Temp
°C
Wind Pressure Rain since
9am
mm
Weather Cloud Vis
km
Sea
Height
m
Swell
Dir  Spd
kts
Gust
kts
hPa Trend Height
m
Period
s
Dir
23/11:30pm 16.6 NNE 2 5 1015.6 - 0.0 - - - - - - -
23/11:00pm 16.3 NNE 3 5 1015.9 - 0.0 - - - - - - -
23/10:30pm 16.4 N 4 6 1016.1 - 0.0 - - - - - - -
23/10:00pm 14.9 N 3 5 1016.2 - 0.0 - - - - - - -
23/09:30pm 14.3 N 3 5 1016.4 - 0.0 - - - - - - -
23/09:00pm 15.1 N 3 5 1016.4 - 0.0 - - - - - - -
23/08:30pm 15.9 N 3 6 1016.3 - 0.0 - - - - - - -
23/08:00pm 16.1 NNW 4 6 1016.4 - 0.0 - - - - - - -
23/07:30pm 16.3 NNW 3 6 1016.2 - 0.0 - - - - - - -
23/07:00pm 17.4 N 5 7 1016.2 - 0.0 - - - - - - -
23/06:30pm 18.1 N 6 8 1016.0 - 0.0 - - - - - - -
23/06:00pm 18.2 N 6 9 1016.2 - 0.0 - - - - - - -
23/05:30pm 18.2 N 4 6 1016.4 - 0.0 - - - - - - -
23/05:00pm 18.5 N 7 10 1016.3 - 0.0 - - - - - - -
23/04:30pm 18.8 N 9 12 1016.0 - 0.0 - - - - - - -
23/04:00pm 19.0 NNE 5 11 1015.7 - 0.0 - - - - - - -
23/03:30pm 20.4 NNW 4 7 1015.7 - 0.0 - - - - - - -
23/03:00pm 20.3 N 5 7 1015.9 - 0.0 - - - - - - -
23/02:30pm 21.3 N 4 9 1016.2 - 0.0 - - - - - - -
23/02:00pm 21.7 N 4 7 1016.1 - 0.0 - - - - - - -
23/01:30pm 22.1 NNW 5 8 1016.4 - 0.0 - - - - - - -
23/01:00pm 21.8 NNW 5 9 1016.7 - 0.0 - - - - - - -
23/12:30pm 21.6 NNW 9 14 1017.4 - 0.0 - - - - - - -
23/12:00pm 19.9 N 5 10 1017.9 - 0.0 - - - - - - -
23/11:30am 20.1 N 3 5 1018.5 - 0.0 - - - - - - -
23/11:00am 18.8 NNW 5 9 1019.1 - 0.0 - - - - - - -
23/10:30am 18.6 N 4 7 1019.5 - 0.0 - - - - - - -
23/10:00am 17.9 N 7 9 1019.9 - 0.0 - - - - - - -
23/09:30am 17.4 N 4 6 1020.2 - 0.0 - - - - - - -
23/09:00am 16.5 N 4 6 1020.3 - 0.0 - - - - - - -
23/08:30am 15.5 NNW 3 5 1020.7 - 0.0 - - - - - - -
23/08:00am 14.2 N 3 5 1020.7 - 0.0 - - - - - - -
23/07:30am 13.0 NNW 3 4 1020.7 - 0.0 - - - - - - -
23/07:00am 12.7 N 4 5 1020.5 - 0.0 - - - - - - -
23/06:30am 12.5 NNW 3 3 1020.3 - 0.0 - - - - - - -
23/06:00am 12.7 NNW 2 3 1020.0 - 0.0 - - - - - - -
23/05:30am 13.1 NNW 3 4 1019.9 - 0.0 - - - - - - -
23/05:00am 13.3 NNW 3 3 1020.0 - 0.0 - - - - - - -
23/04:30am 13.5 NNW 4 5 1019.9 - 0.0 - - - - - - -
23/04:00am 13.4 N 3 5 1020.0 - 0.0 - - - - - - -
23/03:30am 13.5 NNW 3 4 1020.1 - 0.0 - - - - - - -
23/03:00am 13.5 N 2 3 1020.5 - 0.0 - - - - - - -
23/02:30am 14.3 N 1 4 1020.9 - 0.0 - - - - - - -
23/02:00am 15.0 N 4 6 1021.1 - 0.0 - - - - - - -
23/01:30am 15.3 N 3 5 1021.4 - 0.0 - - - - - - -
23/01:00am 15.4 N 4 6 1021.7 - 0.0 - - - - - - -
23/12:30am 15.4 NNW 4 7 1021.9 - 0.0 - - - - - - -
23/12:00am 15.5 NNW 4 6 1022.0 - 0.0 - - - - - - -
 
Date/Time
EST
Temp
°C
Wind Pressure Rain since
9am
mm
Weather Cloud Vis
km
Sea
Height
m
Swell
Dir  Spd
kts
Gust
kts
hPa Trend Height
m
Period
s
Dir
22/11:30pm 14.9 N 3 4 1022.2 - 0.0 - - - - - - -
22/11:00pm 15.2 N 2 4 1022.4 - 0.0 - - - - - - -
22/10:30pm 15.2 N 3 6 1022.5 - 0.0 - - - - - - -
22/10:00pm 15.2 N 3 4 1022.6 - 0.0 - - - - - - -
22/09:30pm 15.3 N 3 5 1022.6 - 0.0 - - - - - - -
22/09:00pm 15.3 N 3 5 1022.5 - 0.0 - - - - - - -
22/08:30pm 15.4 N 2 3 1022.5 - 0.0 - - - - - - -
22/08:00pm 15.9 NNW 2 3 1022.4 - 0.0 - - - - - - -
22/07:30pm 16.6 N 5 7 1022.4 - 0.0 - - - - - - -
22/07:00pm 16.9 N 5 7 1022.4 - 0.0 - - - - - - -
22/06:30pm 17.0 N 6 9 1022.3 - 0.0 - - - - - - -
22/06:00pm 17.1 N 6 9 1022.1 - 0.0 - - - - - - -
22/05:30pm 17.4 N 3 7 1021.9 - 0.0 - - - - - - -
22/05:00pm 17.7 NE 8 12 1021.7 - 0.0 - - - - - - -
22/04:30pm 17.7 NE 9 13 1021.5 - 0.0 - - - - - - -
22/04:00pm 17.9 NE 6 10 1021.5 - 0.0 - - - - - - -
22/03:30pm 18.4 NE 6 10 1021.5 - 0.0 - - - - - - -
22/03:00pm 18.7 NE 5 8 1021.5 - 0.0 - - - - - - -
22/02:30pm 18.8 NE 5 8 1021.7 - 0.0 - - - - - - -
22/02:00pm 18.8 NE 5 9 1022.0 - 0.0 - - - - - - -
22/01:30pm 18.9 NE 6 9 1022.1 - 0.0 - - - - - - -
22/01:00pm 18.8 NNE 5 9 1022.2 - 0.0 - - - - - - -
22/12:30pm 18.6 NNE 4 7 1022.5 - 0.0 - - - - - - -
22/12:00pm 18.4 NNE 3 5 1022.9 - 0.0 - - - - - - -
22/11:30am 17.9 NNE 3 5 1023.4 - 0.0 - - - - - - -
22/11:00am 17.7 SE 2 4 1023.9 - 0.0 - - - - - - -
22/10:30am 16.7 S 2 3 1024.1 - 0.0 - - - - - - -
22/10:00am 16.3 SSE 2 3 1024.4 - 0.0 - - - - - - -
22/09:30am 16.1 NW 2 3 1024.5 - 0.0 - - - - - - -
22/09:00am 16.8 CALM 0 0 1024.4 - 0.0 - - - - - - -
22/08:30am 15.1 NNW 1 2 1024.3 - 0.0 - - - - - - -
22/08:00am 14.5 CALM 0 0 1024.2 - 0.0 - - - - - - -
22/07:30am 12.5 CALM 0 0 1023.7 - 0.0 - - - - - - -
22/07:00am 12.3 CALM 0 0 1023.5 - 0.0 - - - - - - -
22/06:30am 12.3 CALM 0 0 1023.2 - 0.0 - - - - - - -
22/06:00am 11.9 WNW 2 2 1022.8 - 0.0 - - - - - - -
22/05:30am 12.4 CALM 0 0 1022.6 - 0.0 - - - - - - -
22/05:00am 11.9 CALM 0 0 1022.4 - 0.0 - - - - - - -
22/04:30am 11.3 W 2 3 1022.3 - 0.0 - - - - - - -
22/04:00am 12.4 CALM 0 0 1022.2 - 0.0 - - - - - - -
22/03:30am 13.0 CALM 0 0 1022.1 - 0.0 - - - - - - -
22/03:00am 12.8 CALM 0 0 1022.2 - 0.0 - - - - - - -
22/02:30am 12.9 CALM 0 0 1022.3 - 0.0 - - - - - - -
22/02:00am 13.6 NW 1 2 1022.4 - 0.0 - - - - - - -

Other Formats:

Comma delimited format used in spreadsheet applications
http://www.bom.gov.au/fwo/IDN60701/IDN60701.94938.axf

JavaScript Object Notation format (JSON) in row-major order
http://www.bom.gov.au/fwo/IDN60701/IDN60701.94938.json